Time;durP1;ratioP1;P1;durP2;ratioP2;P2;SDS_P1;SDS_P2;PMS_P1;PMS_P2;Temp;Humidity;BMP_temperature;BMP_pressure;BME280_temperature;BME280_humidity;BME280_pressure;Samples;Min_cycle;Max_cycle;Signal;HPM_P1;HPM_P2
2021/07/20 00:00:51;;;;;;;15.3;10.6;;;;;;;;;;;;;
2021/07/20 00:03:16;;;;;;;14.3;10.3;;;;;;;;;;;;;
2021/07/20 00:05:42;;;;;;;15.1;11.2;;;;;;;;;;;;;
2021/07/20 00:08:07;;;;;;;11.4;10.1;;;;;;;;;;;;;
2021/07/20 00:10:33;;;;;;;15.5;10.1;;;;;;;;;;;;;
2021/07/20 00:12:58;;;;;;;13.8;10.5;;;;;;;;;;;;;
2021/07/20 00:15:31;;;;;;;14.9;10.6;;;;;;;;;;;;;
2021/07/20 00:17:56;;;;;;;11.6;9.5;;;;;;;;;;;;;
2021/07/20 00:20:22;;;;;;;13.9;10.5;;;;;;;;;;;;;
2021/07/20 00:22:46;;;;;;;13.4;9.8;;;;;;;;;;;;;
2021/07/20 00:25:11;;;;;;;15;9.9;;;;;;;;;;;;;
2021/07/20 00:27:37;;;;;;;13.8;10;;;;;;;;;;;;;
2021/07/20 00:30:02;;;;;;;16.3;10.7;;;;;;;;;;;;;
2021/07/20 00:32:29;;;;;;;13.1;10.1;;;;;;;;;;;;;
2021/07/20 00:34:54;;;;;;;15.6;10.8;;;;;;;;;;;;;
2021/07/20 00:37:20;;;;;;;15.4;10.5;;;;;;;;;;;;;
2021/07/20 00:39:45;;;;;;;12.3;10.3;;;;;;;;;;;;;
2021/07/20 00:42:11;;;;;;;13.3;10.2;;;;;;;;;;;;;
2021/07/20 00:44:36;;;;;;;16.6;10.7;;;;;;;;;;;;;
2021/07/20 00:47:02;;;;;;;12.2;10.3;;;;;;;;;;;;;
2021/07/20 00:49:27;;;;;;;13.2;10;;;;;;;;;;;;;
2021/07/20 00:51:53;;;;;;;13.5;10;;;;;;;;;;;;;
2021/07/20 00:54:18;;;;;;;14.1;10.2;;;;;;;;;;;;;
2021/07/20 00:56:44;;;;;;;19.5;11.1;;;;;;;;;;;;;
2021/07/20 00:59:09;;;;;;;13.3;9.5;;;;;;;;;;;;;
2021/07/20 01:01:34;;;;;;;15;9.8;;;;;;;;;;;;;
2021/07/20 01:03:59;;;;;;;12.6;9.9;;;;;;;;;;;;;
2021/07/20 01:06:24;;;;;;;14.3;9.8;;;;;;;;;;;;;
2021/07/20 01:08:51;;;;;;;11.8;9.7;;;;;;;;;;;;;
2021/07/20 01:11:15;;;;;;;16.5;10.1;;;;;;;;;;;;;
2021/07/20 01:13:42;;;;;;;16.7;9.8;;;;;;;;;;;;;
2021/07/20 01:16:07;;;;;;;15.2;10.1;;;;;;;;;;;;;
2021/07/20 01:18:33;;;;;;;13.4;9.9;;;;;;;;;;;;;
2021/07/20 01:20:59;;;;;;;13.7;9.7;;;;;;;;;;;;;
2021/07/20 01:23:24;;;;;;;15.1;9.7;;;;;;;;;;;;;
2021/07/20 01:25:51;;;;;;;14.4;10.3;;;;;;;;;;;;;
2021/07/20 01:28:17;;;;;;;15.2;8.7;;;;;;;;;;;;;
2021/07/20 01:30:42;;;;;;;13.3;10;;;;;;;;;;;;;
2021/07/20 01:33:07;;;;;;;12.3;10.3;;;;;;;;;;;;;
2021/07/20 01:35:34;;;;;;;11.4;9.5;;;;;;;;;;;;;
2021/07/20 01:37:58;;;;;;;12.6;10;;;;;;;;;;;;;
2021/07/20 01:40:24;;;;;;;14.2;10;;;;;;;;;;;;;
2021/07/20 01:42:49;;;;;;;16;10.4;;;;;;;;;;;;;
2021/07/20 01:45:16;;;;;;;14.4;10.2;;;;;;;;;;;;;
2021/07/20 01:47:41;;;;;;;13.8;9.8;;;;;;;;;;;;;
2021/07/20 01:50:08;;;;;;;11.5;9.9;;;;;;;;;;;;;
2021/07/20 01:52:33;;;;;;;14.3;10.2;;;;;;;;;;;;;
2021/07/20 01:54:58;;;;;;;12.8;8.5;;;;;;;;;;;;;
2021/07/20 01:57:23;;;;;;;13.9;9.9;;;;;;;;;;;;;
2021/07/20 01:59:49;;;;;;;10.9;9.3;;;;;;;;;;;;;
2021/07/20 02:02:25;;;;;;;11.7;9.7;;;;;;;;;;;;;
2021/07/20 02:04:50;;;;;;;10.7;9.6;;;;;;;;;;;;;
2021/07/20 02:09:29;;;;;;;13.4;10.2;;;;;;;;;;;;;
2021/07/20 02:11:57;;;;;;;14;9.8;;;;;;;;;;;;;
2021/07/20 02:14:23;;;;;;;14.8;10.3;;;;;;;;;;;;;
2021/07/20 02:16:48;;;;;;;13;9.8;;;;;;;;;;;;;
2021/07/20 02:19:13;;;;;;;11;9.5;;;;;;;;;;;;;
2021/07/20 02:21:38;;;;;;;17.8;9.7;;;;;;;;;;;;;
2021/07/20 02:24:03;;;;;;;11.7;9.6;;;;;;;;;;;;;
2021/07/20 02:26:30;;;;;;;12.3;10.3;;;;;;;;;;;;;
2021/07/20 02:28:55;;;;;;;15.1;10.4;;;;;;;;;;;;;
2021/07/20 02:31:20;;;;;;;16;10.7;;;;;;;;;;;;;
2021/07/20 02:33:45;;;;;;;14;10.3;;;;;;;;;;;;;
2021/07/20 02:36:11;;;;;;;12.1;10.3;;;;;;;;;;;;;
2021/07/20 02:38:36;;;;;;;14.3;10.5;;;;;;;;;;;;;
2021/07/20 02:41:03;;;;;;;13.6;9.9;;;;;;;;;;;;;
2021/07/20 02:43:28;;;;;;;14;10.3;;;;;;;;;;;;;
2021/07/20 02:45:55;;;;;;;14.6;10.7;;;;;;;;;;;;;
2021/07/20 02:48:22;;;;;;;13.8;10;;;;;;;;;;;;;
2021/07/20 02:50:47;;;;;;;11.8;10.1;;;;;;;;;;;;;
2021/07/20 02:53:12;;;;;;;15;10.4;;;;;;;;;;;;;
2021/07/20 02:55:38;;;;;;;14.5;10.8;;;;;;;;;;;;;
2021/07/20 02:58:03;;;;;;;14.4;10.7;;;;;;;;;;;;;
2021/07/20 03:00:29;;;;;;;14.6;10.5;;;;;;;;;;;;;
2021/07/20 03:02:54;;;;;;;14.7;10.2;;;;;;;;;;;;;
2021/07/20 03:05:20;;;;;;;12.2;10.3;;;;;;;;;;;;;
2021/07/20 03:07:45;;;;;;;14.5;10.6;;;;;;;;;;;;;
2021/07/20 03:10:13;;;;;;;14.6;10.8;;;;;;;;;;;;;
2021/07/20 03:12:38;;;;;;;13.9;10.5;;;;;;;;;;;;;
2021/07/20 03:15:07;;;;;;;12.9;10.7;;;;;;;;;;;;;
2021/07/20 03:17:35;;;;;;;12.9;10.6;;;;;;;;;;;;;
2021/07/20 03:20:00;;;;;;;14.5;10.6;;;;;;;;;;;;;
2021/07/20 03:22:25;;;;;;;14;10.3;;;;;;;;;;;;;
2021/07/20 03:24:50;;;;;;;16.7;10.7;;;;;;;;;;;;;
2021/07/20 03:27:15;;;;;;;12;10.3;;;;;;;;;;;;;
2021/07/20 03:29:42;;;;;;;13.3;10.2;;;;;;;;;;;;;
2021/07/20 03:32:08;;;;;;;11.9;9.3;;;;;;;;;;;;;
2021/07/20 03:34:33;;;;;;;14.8;9.8;;;;;;;;;;;;;
2021/07/20 03:36:59;;;;;;;13.8;10.2;;;;;;;;;;;;;
2021/07/20 03:39:24;;;;;;;12.9;10.7;;;;;;;;;;;;;
2021/07/20 03:41:49;;;;;;;13;10.3;;;;;;;;;;;;;
2021/07/20 03:44:14;;;;;;;14.2;11.1;;;;;;;;;;;;;
2021/07/20 03:46:41;;;;;;;12.2;10.5;;;;;;;;;;;;;
2021/07/20 03:49:06;;;;;;;14.1;10.7;;;;;;;;;;;;;
2021/07/20 03:51:31;;;;;;;12.3;10.2;;;;;;;;;;;;;
2021/07/20 03:53:57;;;;;;;14.1;10.7;;;;;;;;;;;;;
2021/07/20 03:56:23;;;;;;;14;10.4;;;;;;;;;;;;;
2021/07/20 03:58:48;;;;;;;12.1;10.2;;;;;;;;;;;;;
2021/07/20 04:02:31;;;;;;;13.1;10.1;;;;;;;16.63;87.55469;939.0563;;;;
2021/07/20 04:04:56;;;;;;;12.4;10.3;;;;;;;16.45;86.17773;939.0759;;;;
2021/07/20 04:07:21;;;;;;;15;10.4;;;;;;;16.26;88.24609;939.1083;;;;
2021/07/20 04:09:48;;;;;;;13.9;10.9;;;;;;;16.05;89.50879;939.1777;;;;
2021/07/20 04:12:13;;;;;;;33.4;10.8;;;;;;;15.77;90.4375;939.1886;;;;
2021/07/20 04:14:39;;;;;;;72.4;11.7;;;;;;;15.77;92.14648;939.1389;;;;
2021/07/20 04:17:10;;;;;;;24.5;8.6;;;;;;;15.81;92.43164;939.1465;;;;
2021/07/20 04:19:39;;;;;;;9.4;8.3;;;;;;;15.85;92.82227;939.1351;;;;
2021/07/20 04:22:04;;;;;;;9.7;8.7;;;;;;;15.91;93.06445;939.1603;;;;
2021/07/20 04:24:34;;;;;;;14.4;9.8;;;;;;;16;93.7793;939.0839;;;;
2021/07/20 04:27:00;;;;;;;10.6;9;;;;;;;16.03;93.57715;939.1834;;;;
2021/07/20 04:29:26;;;;;;;9.4;8.3;;;;;;;16.03;92.58105;939.1875;;;;
2021/07/20 04:31:54;;;;;;;12.6;10.5;;;;;;;16.06;91.13184;939.1945;;;;
2021/07/20 04:34:19;;;;;;;13.3;10.2;;;;;;;16.11;91.81348;939.2188;;;;
2021/07/20 04:36:46;;;;;;;12.9;10.1;;;;;;;16.22;92.45898;939.2003;;;;
2021/07/20 04:39:11;;;;;;;12.4;11;;;;;;;16.28;92.58789;939.1603;;;;
2021/07/20 04:41:38;;;;;;;11.9;9.8;;;;;;;16.35;92.02539;939.2615;;;;
2021/07/20 04:44:03;;;;;;;14.2;10.4;;;;;;;16.43;90.49316;939.2648;;;;
2021/07/20 04:46:30;;;;;;;11.8;10.6;;;;;;;16.47;90.86914;939.2919;;;;
2021/07/20 04:48:55;;;;;;;14.5;10;;;;;;;16.47;90.47559;939.2572;;;;
2021/07/20 04:51:23;;;;;;;13.7;10.6;;;;;;;16.38;91.08203;939.348;;;;
2021/07/20 04:53:48;;;;;;;11.5;10.2;;;;;;;16.52;91.19238;939.3443;;;;
2021/07/20 04:56:16;;;;;;;12;9;;;;;;;16.61;91.2002;939.3553;;;;
2021/07/20 04:58:41;;;;;;;11.3;9.6;;;;;;;16.58;91.59766;939.3315;;;;
2021/07/20 05:01:06;;;;;;;11.8;10.5;;;;;;;16.41;92.58203;939.375;;;;
2021/07/20 05:03:31;;;;;;;12.8;10.1;;;;;;;16.37;93.18555;939.4453;;;;
2021/07/20 05:05:57;;;;;;;12.7;10.6;;;;;;;16.3;93.51953;939.5096;;;;
2021/07/20 05:08:27;;;;;;;10.8;9.6;;;;;;;16.44;92.86523;939.5123;;;;
2021/07/20 05:10:56;;;;;;;13.5;10.3;;;;;;;16.41;92.94141;939.5623;;;;
2021/07/20 05:13:21;;;;;;;10.7;9;;;;;;;16.49;90.18066;939.5963;;;;
2021/07/20 05:15:47;;;;;;;10.1;9.1;;;;;;;16.61;91.11914;939.598;;;;
2021/07/20 05:18:11;;;;;;;11.1;8.2;;;;;;;17.18;89.03418;939.592;;;;
2021/07/20 05:20:48;;;;;;;10.1;7.6;;;;;;;17.66;86.62695;939.5641;;;;
2021/07/20 05:23:16;;;;;;;9.9;8.1;;;;;;;18.04;85.2373;939.5933;;;;
2021/07/20 05:25:41;;;;;;;9.9;7.6;;;;;;;18.33;82.9209;939.6578;;;;
2021/07/20 05:28:06;;;;;;;9.6;7.4;;;;;;;18.77;81.91016;939.7012;;;;
2021/07/20 05:30:39;;;;;;;9.2;7.3;;;;;;;19.72;77.36426;939.6356;;;;
2021/07/20 05:33:08;;;;;;;10;7.7;;;;;;;19.2;79.14941;939.596;;;;
2021/07/20 05:35:40;;;;;;;9.4;7;;;;;;;19.51;79.07617;939.572;;;;
2021/07/20 05:38:13;;;;;;;9.5;6.7;;;;;;;20.47;73.875;939.5876;;;;
2021/07/20 05:40:47;;;;;;;8.2;7.3;;;;;;;20.27;74.11133;939.5937;;;;
2021/07/20 05:43:18;;;;;;;8.8;6.8;;;;;;;19.78;75.83594;939.6397;;;;
2021/07/20 05:45:42;;;;;;;8.1;7;;;;;;;19.59;77.22754;939.723;;;;
2021/07/20 05:48:08;;;;;;;9.2;7.6;;;;;;;19.42;78.43066;939.7961;;;;
2021/07/20 05:50:33;;;;;;;12.7;7.8;;;;;;;19.26;79.75488;939.7597;;;;
2021/07/20 05:52:59;;;;;;;10.3;7.9;;;;;;;19.03;81.1543;939.7668;;;;
2021/07/20 05:55:27;;;;;;;10.9;8.2;;;;;;;18.92;81.83203;939.7567;;;;
2021/07/20 05:57:52;;;;;;;10.9;8.3;;;;;;;18.6;83.43652;939.6967;;;;
2021/07/20 06:00:19;;;;;;;9.8;7.7;;;;;;;18.38;84.79102;939.6649;;;;
2021/07/20 06:02:44;;;;;;;8.5;7.6;;;;;;;18.62;84.32617;939.661;;;;
2021/07/20 06:05:11;;;;;;;9.8;7.5;;;;;;;18.87;82.23145;939.7503;;;;
2021/07/20 06:07:36;;;;;;;11.2;8.2;;;;;;;19.01;82.47949;939.7177;;;;
2021/07/20 06:10:01;;;;;;;9.7;7.7;;;;;;;19.15;81.77148;939.7424;;;;
2021/07/20 06:12:27;;;;;;;11.4;8.3;;;;;;;19.2;81.82617;939.8318;;;;
2021/07/20 06:14:56;;;;;;;13;8.2;;;;;;;18.98;82.13672;939.8868;;;;
2021/07/20 06:17:21;;;;;;;10.6;7.4;;;;;;;19.1;82.68066;939.8113;;;;
2021/07/20 06:19:48;;;;;;;8.8;7.7;;;;;;;19.45;80.77734;939.8373;;;;
2021/07/20 06:22:14;;;;;;;11.8;8;;;;;;;19.09;81.07422;939.7921;;;;
2021/07/20 06:24:40;;;;;;;9.5;7.9;;;;;;;18.99;80.7998;939.8139;;;;
2021/07/20 06:27:06;;;;;;;10.8;8.8;;;;;;;18.97;81.73926;939.887;;;;
2021/07/20 06:29:32;;;;;;;11.9;9.5;;;;;;;18.84;82.88965;939.8865;;;;
2021/07/20 06:32:00;;;;;;;12.3;9.4;;;;;;;18.76;83.52637;939.8926;;;;
2021/07/20 06:34:25;;;;;;;12.1;10.7;;;;;;;18.79;84.43848;939.8767;;;;
2021/07/20 06:36:54;;;;;;;14.6;10.8;;;;;;;18.77;85.07324;939.8505;;;;
2021/07/20 06:39:19;;;;;;;15.8;10.9;;;;;;;18.96;84.56445;939.9044;;;;
2021/07/20 06:41:47;;;;;;;15.6;10.9;;;;;;;19.17;83.11426;939.9268;;;;
2021/07/20 06:44:17;;;;;;;12.1;9.6;;;;;;;19.64;81.33691;939.9647;;;;
2021/07/20 06:46:43;;;;;;;12.5;10.1;;;;;;;19.66;79.98828;939.8463;;;;
2021/07/20 06:49:11;;;;;;;13.5;10.2;;;;;;;19.6;80.10645;939.92;;;;
2021/07/20 06:51:36;;;;;;;12.6;11;;;;;;;19.54;79.53711;939.8801;;;;
2021/07/20 06:54:03;;;;;;;15.8;11.2;;;;;;;19.51;80.25293;939.8596;;;;
2021/07/20 06:56:28;;;;;;;15.1;11.7;;;;;;;19.43;81.56641;939.8572;;;;
2021/07/20 06:58:53;;;;;;;12.4;10.9;;;;;;;19.43;81.37988;939.959;;;;
2021/07/20 07:01:22;;;;;;;13.2;11.3;;;;;;;19.42;80.93555;939.9373;;;;
2021/07/20 07:03:48;;;;;;;14.8;11.7;;;;;;;19.41;81.40039;939.834;;;;
2021/07/20 07:06:13;;;;;;;21.1;13.1;;;;;;;19.4;82.31934;939.9102;;;;
2021/07/20 07:08:39;;;;;;;17;12.3;;;;;;;19.24;83.74609;939.9216;;;;
2021/07/20 07:11:04;;;;;;;17.5;12.6;;;;;;;19.53;84.7666;939.9189;;;;
2021/07/20 07:13:32;;;;;;;14.6;10.3;;;;;;;20.32;82.37402;939.8237;;;;
2021/07/20 07:15:59;;;;;;;11.9;9.1;;;;;;;22.47;73.44727;939.8766;;;;
2021/07/20 07:18:29;;;;;;;12.2;9;;;;;;;23.62;66.88574;939.8744;;;;
2021/07/20 07:20:58;;;;;;;12;8.6;;;;;;;23.37;66.77734;939.9506;;;;
2021/07/20 07:23:24;;;;;;;11.2;9.2;;;;;;;23.04;66.83301;939.9138;;;;
2021/07/20 07:25:54;;;;;;;10.5;9.4;;;;;;;22.08;71.22461;939.9231;;;;
2021/07/20 07:28:18;;;;;;;12.6;9.5;;;;;;;21.59;72.78516;940.0076;;;;
2021/07/20 07:30:45;;;;;;;11.3;9;;;;;;;21.41;73.00195;939.999;;;;
2021/07/20 07:33:10;;;;;;;10.2;9.2;;;;;;;21.38;72.92871;939.9244;;;;
2021/07/20 07:35:38;;;;;;;11.2;9.2;;;;;;;21.32;73.83105;939.9878;;;;
2021/07/20 07:38:03;;;;;;;10.6;9.3;;;;;;;20.93;75.15723;939.9218;;;;
2021/07/20 07:40:29;;;;;;;11.1;9.9;;;;;;;20.28;78.03418;939.9623;;;;
2021/07/20 07:42:54;;;;;;;13.6;10.5;;;;;;;20.41;80.59082;939.9383;;;;
2021/07/20 07:45:21;;;;;;;10.2;7.9;;;;;;;22.95;71.38867;939.8825;;;;
2021/07/20 07:47:46;;;;;;;11.8;8.6;;;;;;;24.38;65.3252;939.8847;;;;
2021/07/20 07:50:14;;;;;;;10;7.9;;;;;;;26.1;60.38477;939.8865;;;;
2021/07/20 07:52:39;;;;;;;9.3;7.8;;;;;;;25.31;62.33203;939.9153;;;;
2021/07/20 07:55:11;;;;;;;11.2;7.9;;;;;;;25.26;60.40039;939.8689;;;;
2021/07/20 07:57:36;;;;;;;8.3;7.3;;;;;;;26.41;57.83398;939.8091;;;;
2021/07/20 08:00:03;;;;;;;10.5;8;;;;;;;25.74;58.94141;939.8452;;;;
2021/07/20 08:02:28;;;;;;;8.9;7.8;;;;;;;25.91;58.64648;939.8111;;;;
2021/07/20 08:04:51;;;;;;;9;8.1;;;;;;;25.08;60.64844;939.8123;;;;
2021/07/20 08:07:18;;;;;;;11;8.8;;;;;;;23.75;65.32813;939.9063;;;;
2021/07/20 08:09:43;;;;;;;8.9;8;;;;;;;23.3;67.58789;939.9072;;;;
2021/07/20 08:12:10;;;;;;;10.6;8.7;;;;;;;23.7;66.39063;939.8303;;;;
2021/07/20 08:14:35;;;;;;;9.2;7.9;;;;;;;24.69;64.07422;939.8215;;;;
2021/07/20 08:17:00;;;;;;;10.2;7.5;;;;;;;25.51;61.4043;939.7983;;;;
2021/07/20 08:19:31;;;;;;;10.5;8.6;;;;;;;26.28;57.40234;939.7525;;;;
2021/07/20 08:21:57;;;;;;;9.1;7.6;;;;;;;26.7;57.33789;939.7104;;;;
2021/07/20 08:24:18;;;;;;;8.9;7.9;;;;;;;26.67;55.86621;939.7234;;;;
2021/07/20 08:26:43;;;;;;;10;7.8;;;;;;;27.4;54.55762;939.7433;;;;
2021/07/20 08:29:08;;;;;;;9.2;7.4;;;;;;;28.52;53.51465;939.7458;;;;
2021/07/20 08:31:37;;;;;;;8.3;7;;;;;;;28.79;50.9541;939.6989;;;;
2021/07/20 08:34:03;;;;;;;8.9;6.7;;;;;;;29.89;47.46387;939.6928;;;;
2021/07/20 08:36:29;;;;;;;6.9;5.9;;;;;;;30.27;49.25879;939.7156;;;;
2021/07/20 08:38:54;;;;;;;5.9;5.3;;;;;;;31.22;45.52148;939.7158;;;;
2021/07/20 08:41:26;;;;;;;7.6;5.6;;;;;;;29.61;49.97363;939.6415;;;;
2021/07/20 08:43:57;;;;;;;6.3;5.4;;;;;;;30.32;48.87012;939.6415;;;;
2021/07/20 08:46:22;;;;;;;6.6;5.9;;;;;;;30.08;49.24902;939.6479;;;;
2021/07/20 08:48:48;;;;;;;7.9;6.2;;;;;;;30.43;45.49023;939.6128;;;;
2021/07/20 08:51:15;;;;;;;7.3;5.8;;;;;;;29.25;47.51563;939.5938;;;;
2021/07/20 08:53:46;;;;;;;6.9;5.4;;;;;;;28.98;48.45215;939.6325;;;;
2021/07/20 08:56:11;;;;;;;10.7;6.3;;;;;;;28.86;50.90234;939.592;;;;
2021/07/20 08:58:36;;;;;;;8.9;6.5;;;;;;;29.74;47.77051;939.58;;;;
2021/07/20 09:01:06;;;;;;;8.9;5.9;;;;;;;30.7;46.16211;939.5909;;;;
2021/07/20 09:03:33;;;;;;;6.3;5.4;;;;;;;30.58;45.15918;939.5109;;;;
2021/07/20 09:06:04;;;;;;;7.4;5.6;;;;;;;30;45.64941;939.5415;;;;
2021/07/20 09:08:28;;;;;;;7.2;4.9;;;;;;;30.96;43.83398;939.4486;;;;
2021/07/20 09:10:56;;;;;;;5.9;4.8;;;;;;;30.3;46.55176;939.4402;;;;
2021/07/20 09:13:21;;;;;;;5.8;4.8;;;;;;;30.32;48.35742;939.5025;;;;
2021/07/20 09:16:05;;;;;;;10.2;5.1;;;;;;;31.91;44.12891;939.4785;;;;
2021/07/20 09:18:37;;;;;;;6.8;5.1;;;;;;;31.36;45.41602;939.4765;;;;
2021/07/20 09:21:04;;;;;;;6.4;5;;;;;;;31.47;45.04492;939.4817;;;;
2021/07/20 09:23:28;;;;;;;6.3;4.8;;;;;;;31.86;44.79492;939.4776;;;;
2021/07/20 09:25:59;;;;;;;6.2;5;;;;;;;31.09;45.56836;939.4788;;;;
2021/07/20 09:28:24;;;;;;;5.9;5.3;;;;;;;30.56;45.41895;939.4903;;;;
2021/07/20 09:30:51;;;;;;;9.8;5.3;;;;;;;29.93;46.84863;939.4922;;;;
2021/07/20 09:33:16;;;;;;;6.2;5.4;;;;;;;28.95;49.40039;939.5309;;;;
2021/07/20 09:35:48;;;;;;;8.5;5.8;;;;;;;27.81;52.19629;939.4408;;;;
2021/07/20 09:38:15;;;;;;;6.9;5.7;;;;;;;27.42;56.10156;939.4677;;;;
2021/07/20 09:40:45;;;;;;;7.1;5.8;;;;;;;29.03;50.54004;939.4608;;;;
2021/07/20 09:43:14;;;;;;;7.7;5.4;;;;;;;28.85;53.17383;939.4492;;;;
2021/07/20 09:45:45;;;;;;;8.6;6.1;;;;;;;28.55;52.74512;939.4942;;;;
2021/07/20 09:48:18;;;;;;;7;5.5;;;;;;;29.49;48.82813;939.4139;;;;
2021/07/20 09:50:36;;;;;;;7.8;5.1;;;;;;;28.87;49.9043;939.4224;;;;
2021/07/20 09:53:05;;;;;;;13;6.1;;;;;;;29.27;47.43359;939.4337;;;;
2021/07/20 09:55:32;;;;;;;8.3;5.4;;;;;;;28.88;52.10547;939.4484;;;;
2021/07/20 09:57:58;;;;;;;8;5.1;;;;;;;30.35;47.47656;939.3723;;;;
2021/07/20 10:00:23;;;;;;;7.2;5.2;;;;;;;29.88;46.89063;939.41;;;;
2021/07/20 10:02:49;;;;;;;8.2;5.8;;;;;;;28.63;49.04395;939.4207;;;;
2021/07/20 10:05:16;;;;;;;7.6;5.8;;;;;;;29.24;47.11035;939.4342;;;;
2021/07/20 10:07:40;;;;;;;7.8;5.5;;;;;;;30.04;44.49707;939.3808;;;;
2021/07/20 10:10:06;;;;;;;6;5.2;;;;;;;30.23;45.32715;939.3564;;;;
2021/07/20 10:12:36;;;;;;;7.5;5;;;;;;;28.54;49.96191;939.349;;;;
2021/07/20 10:15:03;;;;;;;13.7;8.1;;;;;;;27.4;53.00293;939.3893;;;;
2021/07/20 10:17:31;;;;;;;27.6;14.8;;;;;;;27.79;52.18164;939.3438;;;;
2021/07/20 10:19:56;;;;;;;19.7;11;;;;;;;28.48;50.7168;939.3094;;;;
2021/07/20 10:22:21;;;;;;;27.7;14.7;;;;;;;28.48;49.8125;939.2752;;;;
2021/07/20 10:24:47;;;;;;;9.4;7;;;;;;;27.81;52.68359;939.3017;;;;
2021/07/20 10:27:14;;;;;;;10.9;7.2;;;;;;;28.14;52.30566;939.2974;;;;
2021/07/20 10:29:39;;;;;;;13;7.6;;;;;;;27.92;51.08105;939.2417;;;;
2021/07/20 10:32:06;;;;;;;7.8;5.7;;;;;;;27.52;54.63086;939.2285;;;;
2021/07/20 10:34:36;;;;;;;9.4;6.9;;;;;;;27.63;52.60352;939.2425;;;;
2021/07/20 10:37:01;;;;;;;7.1;5.6;;;;;;;28.34;49.73828;939.1922;;;;
2021/07/20 10:39:29;;;;;;;7.8;5.7;;;;;;;28.16;52.02344;939.1841;;;;
2021/07/20 10:41:55;;;;;;;7.9;6.1;;;;;;;27.86;53.36523;939.1508;;;;
2021/07/20 10:44:20;;;;;;;7.9;5.5;;;;;;;27.16;53.85352;939.1467;;;;
2021/07/20 10:46:45;;;;;;;7.9;5.9;;;;;;;27.71;52.28027;939.1788;;;;
2021/07/20 10:49:10;;;;;;;8.9;6.5;;;;;;;27.98;51.29004;939.1947;;;;
2021/07/20 10:51:41;;;;;;;6.5;5.8;;;;;;;27.05;54.48047;939.1158;;;;
2021/07/20 10:54:06;;;;;;;9.8;6.6;;;;;;;26.91;57.44922;939.1555;;;;
2021/07/20 10:56:33;;;;;;;9.4;6;;;;;;;26.89;55.75098;939.1094;;;;
2021/07/20 10:58:56;;;;;;;8.5;6;;;;;;;27.28;53.3916;939.0517;;;;
2021/07/20 11:01:22;;;;;;;8.1;6.3;;;;;;;26.71;56.25;939.0903;;;;
2021/07/20 11:03:47;;;;;;;8;6.2;;;;;;;26.76;57.13281;939.0562;;;;
2021/07/20 11:06:13;;;;;;;10.4;6.8;;;;;;;25.97;57.89551;939.0661;;;;
2021/07/20 11:08:41;;;;;;;7.9;6.1;;;;;;;26.44;56.27637;939.0803;;;;
2021/07/20 11:11:02;;;;;;;8.6;6.4;;;;;;;26.33;54.3916;938.9847;;;;
2021/07/20 11:13:28;;;;;;;10.1;6.5;;;;;;;25.55;60.15723;939.0826;;;;
2021/07/20 11:15:57;;;;;;;8;6.8;;;;;;;25.43;59.31348;939.0417;;;;
2021/07/20 11:18:26;;;;;;;9.3;7.3;;;;;;;24.86;60.39551;938.9673;;;;
2021/07/20 11:20:51;;;;;;;10.1;7.1;;;;;;;24.42;62.73926;939.0767;;;;
2021/07/20 11:23:19;;;;;;;9.8;7.5;;;;;;;24.73;61.40234;939.0225;;;;
2021/07/20 11:25:43;;;;;;;11.5;8.4;;;;;;;24.78;61.11523;939.0325;;;;
2021/07/20 11:28:08;;;;;;;10.5;7.3;;;;;;;25.46;58.58594;938.9791;;;;
2021/07/20 11:30:35;;;;;;;10.1;7.3;;;;;;;25.28;59.7666;938.955;;;;
2021/07/20 11:33:00;;;;;;;10.6;7.9;;;;;;;24.99;59.52637;938.9039;;;;
2021/07/20 11:35:26;;;;;;;11;7.6;;;;;;;25.31;56.59473;938.8937;;;;
2021/07/20 11:37:53;;;;;;;10.5;7.5;;;;;;;25.58;58.22461;938.8275;;;;
2021/07/20 11:40:18;;;;;;;12.7;8;;;;;;;25.48;58.01074;938.8575;;;;
2021/07/20 11:42:46;;;;;;;9.7;7.5;;;;;;;25.85;59.12109;938.8358;;;;
2021/07/20 11:45:14;;;;;;;9.6;7.6;;;;;;;25.44;57.37695;938.8939;;;;
2021/07/20 11:47:39;;;;;;;12;7.8;;;;;;;25.44;55.97168;938.8613;;;;
2021/07/20 11:50:12;;;;;;;11.6;7.8;;;;;;;25.82;54.17578;938.8657;;;;
2021/07/20 11:52:37;;;;;;;10;7.1;;;;;;;26.49;53.46387;938.8719;;;;
2021/07/20 11:55:02;;;;;;;11.2;8.1;;;;;;;26.67;54.01855;938.8672;;;;
2021/07/20 11:57:27;;;;;;;11;8;;;;;;;26.55;54.85645;938.9056;;;;
2021/07/20 12:00:15;;;;;;;10.6;7.4;;;;;;;26.1;56.15039;938.9323;;;;
2021/07/20 12:02:43;;;;;;;12.8;8.7;;;;;;;25.98;54.4082;938.9031;;;;
2021/07/20 12:05:06;;;;;;;10.4;8.1;;;;;;;25.05;56.41895;938.8276;;;;
2021/07/20 12:07:32;;;;;;;12.6;9.8;;;;;;;24.83;57.44141;938.8359;;;;
2021/07/20 12:09:59;;;;;;;13.4;9.4;;;;;;;24.31;57.83496;938.7731;;;;
2021/07/20 12:12:28;;;;;;;11.9;9.5;;;;;;;24.69;57.67188;938.8027;;;;
2021/07/20 12:14:56;;;;;;;11.8;9.5;;;;;;;24.52;59.81836;938.8289;;;;
2021/07/20 12:17:22;;;;;;;10.9;9.5;;;;;;;25.04;57.89258;938.8092;;;;
2021/07/20 12:19:51;;;;;;;11.4;9.3;;;;;;;25.22;59.73535;938.8259;;;;
2021/07/20 12:22:16;;;;;;;13.7;9.5;;;;;;;25.64;56.91992;938.7836;;;;
2021/07/20 12:24:43;;;;;;;12.4;9.8;;;;;;;25.4;59.01563;938.7224;;;;
2021/07/20 12:27:09;;;;;;;15.9;10.3;;;;;;;25.34;61.7334;938.8364;;;;
2021/07/20 12:29:37;;;;;;;11.7;10.1;;;;;;;25.58;58.01172;938.7991;;;;
2021/07/20 12:32:02;;;;;;;14.2;10.3;;;;;;;25.82;57.99512;938.7692;;;;
2021/07/20 12:34:27;;;;;;;14.1;9.9;;;;;;;26.16;56.25195;938.8397;;;;
2021/07/20 12:36:57;;;;;;;13.9;10.2;;;;;;;26.16;55.18652;938.7727;;;;
2021/07/20 12:39:27;;;;;;;12.8;11.1;;;;;;;25.25;56.72852;938.8267;;;;
2021/07/20 12:41:52;;;;;;;12.1;10.2;;;;;;;24.71;57.81543;938.7597;;;;
2021/07/20 12:44:17;;;;;;;11.8;10.2;;;;;;;25.13;58.25879;938.7308;;;;
2021/07/20 12:46:42;;;;;;;13;10.2;;;;;;;25.06;60.22168;938.7852;;;;
2021/07/20 12:49:09;;;;;;;13;10.9;;;;;;;25.23;57.75293;938.7459;;;;
2021/07/20 12:51:34;;;;;;;13.3;10.7;;;;;;;25.5;56.81836;938.7689;;;;
2021/07/20 12:54:05;;;;;;;12.9;11;;;;;;;25.72;57.14258;938.7709;;;;
2021/07/20 12:56:35;;;;;;;13.2;10.7;;;;;;;26.21;56.00977;938.7512;;;;
2021/07/20 12:59:00;;;;;;;13.1;11.1;;;;;;;26.25;55.86035;938.7802;;;;
2021/07/20 13:01:32;;;;;;;13.1;10.7;;;;;;;26.24;55.33984;938.8066;;;;
2021/07/20 13:03:58;;;;;;;12.9;11.3;;;;;;;26.38;54.83594;938.7695;;;;
2021/07/20 13:06:23;;;;;;;14.2;11;;;;;;;26.5;55.84473;938.7736;;;;
2021/07/20 13:08:54;;;;;;;12.9;10.4;;;;;;;26.33;52.46191;938.7678;;;;
2021/07/20 13:11:23;;;;;;;13.8;11;;;;;;;26.56;52.1582;938.7842;;;;
2021/07/20 13:13:48;;;;;;;15.8;11.9;;;;;;;26.06;56.2168;938.8298;;;;
2021/07/20 13:16:25;;;;;;;13.4;10.7;;;;;;;26.19;54.07813;938.7999;;;;
2021/07/20 13:18:52;;;;;;;15.4;11.5;;;;;;;25.57;56.44922;938.7701;;;;
2021/07/20 13:21:22;;;;;;;15.4;11.4;;;;;;;25.43;58.14551;938.8748;;;;
2021/07/20 13:23:48;;;;;;;14.8;11.7;;;;;;;25.51;54.99023;938.7992;;;;
2021/07/20 13:26:17;;;;;;;14.2;11.6;;;;;;;25.65;55.9873;938.8017;;;;
2021/07/20 13:28:42;;;;;;;14.1;12;;;;;;;25.77;54.24219;938.8735;;;;
2021/07/20 13:31:13;;;;;;;13.1;11.2;;;;;;;26.07;53.8877;938.8881;;;;
2021/07/20 13:33:40;;;;;;;13.8;11.6;;;;;;;26.34;52.72363;938.8931;;;;
2021/07/20 13:36:06;;;;;;;13.1;11.7;;;;;;;26.47;53.19043;938.8605;;;;
2021/07/20 13:38:31;;;;;;;13.3;11.2;;;;;;;26.55;52.34668;938.8772;;;;
2021/07/20 13:41:00;;;;;;;12.9;11.5;;;;;;;26.41;53.69043;938.8433;;;;
2021/07/20 13:43:28;;;;;;;17.3;12.3;;;;;;;25.91;57.6875;938.8688;;;;
2021/07/20 13:45:55;;;;;;;15.4;11.4;;;;;;;25.98;54.34863;938.872;;;;
2021/07/20 13:48:22;;;;;;;14.7;11.5;;;;;;;25.57;53.30664;938.8478;;;;
2021/07/20 13:50:47;;;;;;;14.3;11.7;;;;;;;25.83;52.77051;938.8956;;;;
2021/07/20 13:53:12;;;;;;;16.3;12;;;;;;;25.75;54.85449;938.9055;;;;
2021/07/20 13:55:37;;;;;;;15.3;12.6;;;;;;;25.65;54.63965;938.9102;;;;
2021/07/20 13:58:02;;;;;;;16.3;12.1;;;;;;;25.53;55.52344;938.9525;;;;
2021/07/20 14:00:28;;;;;;;16.3;12.3;;;;;;;25.68;54.04199;938.918;;;;
2021/07/20 14:02:55;;;;;;;16.5;13;;;;;;;25.69;54.76367;938.8922;;;;
2021/07/20 14:05:19;;;;;;;16.6;13.1;;;;;;;25.36;56.28125;938.9551;;;;
2021/07/20 14:07:46;;;;;;;16.6;12.7;;;;;;;25.29;56.89844;938.9725;;;;
2021/07/20 14:10:11;;;;;;;15.5;12.1;;;;;;;25.51;56.18164;939.0391;;;;
2021/07/20 14:12:36;;;;;;;14.1;12;;;;;;;25.52;54.9541;938.949;;;;
2021/07/20 14:15:11;;;;;;;15.3;12.5;;;;;;;25.67;54.76074;938.9486;;;;
2021/07/20 14:17:38;;;;;;;18.9;11.8;;;;;;;25.69;54.45508;938.9772;;;;
2021/07/20 14:20:13;;;;;;;15.9;13.2;;;;;;;25.67;54.61914;938.9738;;;;
2021/07/20 14:22:38;;;;;;;13.9;12.4;;;;;;;26.02;52.78125;939.015;;;;
2021/07/20 14:25:13;;;;;;;15;12.6;;;;;;;26.16;52.71582;938.9318;;;;
2021/07/20 14:27:43;;;;;;;17.8;13.1;;;;;;;26.12;53.59766;938.9919;;;;
2021/07/20 14:30:08;;;;;;;18.5;13.3;;;;;;;25.8;53.0498;938.981;;;;
2021/07/20 14:32:37;;;;;;;17;13.5;;;;;;;25.85;53.22168;939.0522;;;;
2021/07/20 14:35:11;;;;;;;15.6;13;;;;;;;25.67;54.25195;938.9747;;;;
2021/07/20 14:37:36;;;;;;;15.5;13;;;;;;;25.83;54.30859;938.9844;;;;
2021/07/20 14:40:07;;;;;;;15;12.8;;;;;;;26.07;53.48535;938.9487;;;;
2021/07/20 14:42:35;;;;;;;18.5;13.1;;;;;;;25.76;53.54199;938.995;;;;
2021/07/20 14:45:04;;;;;;;17;13;;;;;;;25.42;54.24609;939.0126;;;;
2021/07/20 14:47:33;;;;;;;17.8;13.7;;;;;;;25.18;55.82227;938.9755;;;;
2021/07/20 14:49:58;;;;;;;15.8;13.6;;;;;;;25.33;56.99902;938.9874;;;;
2021/07/20 14:52:23;;;;;;;17.4;13.9;;;;;;;25.08;56.37598;939.0316;;;;
2021/07/20 14:54:51;;;;;;;15.8;13.8;;;;;;;25.11;56.79395;939.0666;;;;
2021/07/20 14:57:17;;;;;;;17;13.6;;;;;;;24.97;57.86133;939.0535;;;;
2021/07/20 14:59:42;;;;;;;17.8;14;;;;;;;24.82;57.42871;939.0575;;;;
2021/07/20 15:02:11;;;;;;;19.9;14.8;;;;;;;24.96;55.06348;939.0181;;;;
2021/07/20 15:04:36;;;;;;;17;14.4;;;;;;;25.13;54.85938;939.0374;;;;
2021/07/20 15:07:01;;;;;;;17.5;13.2;;;;;;;25.34;54.33105;939.0481;;;;
2021/07/20 15:09:27;;;;;;;17.1;13.8;;;;;;;25.18;53.81543;938.9902;;;;
2021/07/20 15:11:52;;;;;;;18.1;13.8;;;;;;;25.47;54.29883;939.0203;;;;
2021/07/20 15:14:16;;;;;;;17.4;13.4;;;;;;;25.48;54.26465;939.011;;;;
2021/07/20 15:16:49;;;;;;;15;12.8;;;;;;;25.44;53.95313;939.1099;;;;
2021/07/20 15:19:16;;;;;;;17.8;13.7;;;;;;;25.48;54.22949;939.0975;;;;
2021/07/20 15:21:41;;;;;;;18.4;14.1;;;;;;;25.48;55.57715;939.1275;;;;